Time;durP1;ratioP1;P1;durP2;ratioP2;P2;SDS_P1;SDS_P2;PMS_P1;PMS_P2;Temp;Humidity;BMP_temperature;BMP_pressure;BME280_temperature;BME280_humidity;BME280_pressure;Samples;Min_cycle;Max_cycle;Signal;HPM_P1;HPM_P2
2021/01/24 00:00:06;;;;;;;3.97;3.20;;;;;;;;;;10267630;28;20406;-63
2021/01/24 00:05:10;;;;;;;4.00;3.50;;;;;;;;;;10269023;28;20033;-65
2021/01/24 00:10:08;;;;;;;1.77;1.67;;;;;;;;;;10260425;28;20646;-64
2021/01/24 00:15:06;;;;;;;4.53;3.63;;;;;;;;;;10259166;28;20048;-64
2021/01/24 00:20:03;;;;;;;;;;;;;;;;;;10270488;28;20528;-65
2021/01/24 00:25:01;;;;;;;10.90;6.00;;;;;;;;;;10268798;28;19932;-64
2021/01/24 00:29:58;;;;;;;8.53;4.20;;;;;;;;;;10265100;28;20029;-61
2021/01/24 00:34:56;;;;;;;9.50;4.90;;;;;;;;;;10262754;28;20034;-64
2021/01/24 00:39:53;;;;;;;4.40;3.87;;;;;;;;;;10282612;28;20029;-64
2021/01/24 00:44:50;;;;;;;5.47;3.60;;;;;;;;;;10286307;28;20622;-65
2021/01/24 00:49:48;;;;;;;8.77;3.83;;;;;;;;;;10250040;28;20044;-63
2021/01/24 00:54:45;;;;;;;4.67;3.70;;;;;;;;;;10290292;28;20572;-63
2021/01/24 00:59:43;;;;;;;8.97;3.60;;;;;;;;;;10285135;28;20184;-64
2021/01/24 01:04:40;;;;;;;6.53;4.03;;;;;;;;;;10289035;28;20492;-63
2021/01/24 01:09:38;;;;;;;16.53;5.40;;;;;;;;;;10292581;28;20120;-63
2021/01/24 01:14:35;;;;;;;4.60;3.97;;;;;;;;;;10289978;28;20557;-63
2021/01/24 01:19:33;;;;;;;4.97;3.57;;;;;;;;;;10299711;28;20060;-64
2021/01/24 01:24:30;;;;;;;9.10;4.73;;;;;;;;;;10290468;28;20295;-63
2021/01/24 01:29:28;;;;;;;2.87;2.27;;;;;;;;;;10286492;28;20419;-64
2021/01/24 01:34:25;;;;;;;8.47;5.10;;;;;;;;;;10302250;28;20041;-63
2021/01/24 01:39:22;;;;;;;5.73;3.10;;;;;;;;;;10287685;28;20033;-63
2021/01/24 01:44:20;;;;;;;7.90;4.23;;;;;;;;;;10288260;28;20034;-64
2021/01/24 01:49:17;;;;;;;3.43;3.13;;;;;;;;;;10249825;28;20036;-62
2021/01/24 01:54:15;;;;;;;6.97;5.03;;;;;;;;;;10296734;28;20041;-63
2021/01/24 01:59:12;;;;;;;7.37;4.30;;;;;;;;;;10280569;28;20037;-63
2021/01/24 02:04:14;;;;;;;10.77;3.60;;;;;;;;;;10279336;28;20500;-63
2021/01/24 02:09:17;;;;;;;16.05;2.67;;;;;;;;;;10281151;28;20040;-64
2021/01/24 02:14:22;;;;;;;9.93;3.97;;;;;;;;;;10276810;28;20312;-63
2021/01/24 02:19:26;;;;;;;10.27;5.18;;;;;;;;;;10277218;28;20034;-64
2021/01/24 02:24:25;;;;;;;5.28;4.03;;;;;;;;;;10287417;28;20073;-63
2021/01/24 02:29:25;;;;;;;7.40;3.20;;;;;;;;;;10285404;28;20048;-62
2021/01/24 02:34:26;;;;;;;3.13;2.83;;;;;;;;;;10280260;28;20624;-63
2021/01/24 02:39:23;;;;;;;7.10;3.53;;;;;;;;;;10281335;28;21365;-63
2021/01/24 02:44:22;;;;;;;3.87;2.43;;;;;;;;;;10271995;28;20042;-64
2021/01/24 02:49:19;;;;;;;;;;;;;;;;;;10287565;28;20050;-64
2021/01/24 02:54:17;;;;;;;6.70;3.93;;;;;;;;;;10272869;28;20008;-64
2021/01/24 02:59:15;;;;;;;6.68;4.03;;;;;;;;;;10292110;28;20707;-63
2021/01/24 03:04:12;;;;;;;10.93;5.75;;;;;;;;;;10290800;28;20040;-64
2021/01/24 03:09:10;;;;;;;5.63;4.57;;;;;;;;;;10277119;28;20507;-64
2021/01/24 03:14:09;;;;;;;8.03;5.17;;;;;;;;;;10263905;28;20039;-65
2021/01/24 03:19:07;;;;;;;9.32;5.72;;;;;;;;;;10292668;28;20047;-66
2021/01/24 03:24:06;;;;;;;4.30;3.85;;;;;;;;;;10262470;28;20041;-64
2021/01/24 03:29:03;;;;;;;8.38;5.10;;;;;;;;;;10289159;28;20033;-63
2021/01/24 03:34:02;;;;;;;6.97;4.32;;;;;;;;;;10289692;28;20087;-65
2021/01/24 03:38:59;;;;;;;6.70;4.50;;;;;;;;;;10288852;28;20061;-64
2021/01/24 03:43:56;;;;;;;5.63;4.33;;;;;;;;;;10286680;28;20516;-64
2021/01/24 03:48:54;;;;;;;10.17;6.13;;;;;;;;;;10280042;28;20048;-64
2021/01/24 03:53:51;;;;;;;12.37;6.07;;;;;;;;;;10266526;28;20034;-64
2021/01/24 03:58:48;;;;;;;5.67;3.63;;;;;;;;;;10279419;28;20040;-64
2021/01/24 04:03:46;;;;;;;6.07;3.63;;;;;;;;;;10267810;28;20034;-64
2021/01/24 04:08:43;;;;;;;7.20;5.07;;;;;;;;;;10280892;28;20050;-63
2021/01/24 04:13:41;;;;;;;11.00;5.90;;;;;;;;;;10277543;28;20128;-64
2021/01/24 04:18:38;;;;;;;5.90;4.13;;;;;;;;;;10279958;28;20037;-64
2021/01/24 04:23:36;;;;;;;5.63;3.10;;;;;;;;;;10297590;28;20036;-63
2021/01/24 04:28:33;;;;;;;10.73;5.70;;;;;;;;;;10287137;28;20037;-64
2021/01/24 04:33:30;;;;;;;3.80;3.43;;;;;;;;;;10294951;28;20042;-63
2021/01/24 04:38:28;;;;;;;4.10;3.40;;;;;;;;;;10271234;28;20225;-64
2021/01/24 04:43:25;;;;;;;3.40;2.53;;;;;;;;;;10290989;28;20045;-64
2021/01/24 04:48:23;;;;;;;10.43;4.43;;;;;;;;;;10288903;28;20037;-63
2021/01/24 04:53:21;;;;;;;8.48;3.75;;;;;;;;;;10269236;28;20041;-64
2021/01/24 04:58:19;;;;;;;;;;;;;;;;;;10266331;28;20041;-64
2021/01/24 05:03:16;;;;;;;7.60;5.47;;;;;;;;;;10292778;28;19920;-63
2021/01/24 05:08:15;;;;;;;11.20;4.90;;;;;;;;;;10282889;28;20297;-63
2021/01/24 05:13:24;;;;;;;8.18;5.40;;;;;;;;;;10290607;28;20041;-65
2021/01/24 05:18:22;;;;;;;;;;;;;;;;;;10270825;28;20447;-64
2021/01/24 05:23:22;;;;;;;8.45;4.03;;;;;;;;;;10275538;28;19917;-63
2021/01/24 05:28:21;;;;;;;11.57;5.32;;;;;;;;;;10290566;28;20049;-64
2021/01/24 05:33:19;;;;;;;13.57;4.70;;;;;;;;;;10288774;28;20041;-64
2021/01/24 05:38:36;;;;;;;6.13;3.75;;;;;;;;;;10261512;28;20038;-64
2021/01/24 05:43:38;;;;;;;5.35;4.07;;;;;;;;;;10289020;28;20033;-64
2021/01/24 05:48:36;;;;;;;10.68;4.82;;;;;;;;;;10274730;28;20037;-63
2021/01/24 05:53:43;;;;;;;9.23;4.90;;;;;;;;;;10284128;28;20042;-63
2021/01/24 05:58:40;;;;;;;6.45;4.32;;;;;;;;;;10268848;28;20029;-64
2021/01/24 06:03:39;;;;;;;8.80;4.75;;;;;;;;;;10270274;28;20725;-63
2021/01/24 06:08:36;;;;;;;8.32;4.85;;;;;;;;;;10287062;28;20029;-64
2021/01/24 06:13:34;;;;;;;4.73;4.10;;;;;;;;;;10273078;28;20033;-63
2021/01/24 06:18:47;;;;;;;6.80;4.18;;;;;;;;;;10277574;28;20038;-63
2021/01/24 06:23:50;;;;;;;7.07;3.97;;;;;;;;;;10292177;28;20041;-65
2021/01/24 06:28:49;;;;;;;12.05;5.68;;;;;;;;;;10278950;28;20104;-64
2021/01/24 06:33:51;;;;;;;9.65;4.10;;;;;;;;;;10276996;28;20547;-64
2021/01/24 06:38:55;;;;;;;7.78;4.00;;;;;;;;;;10258585;28;20039;-64
2021/01/24 06:43:52;;;;;;;7.50;3.72;;;;;;;;;;10279333;28;20405;-63
2021/01/24 06:48:51;;;;;;;9.77;4.23;;;;;;;;;;10277690;28;20038;-64
2021/01/24 06:53:48;;;;;;;;;;;;;;;;;;10266564;28;20034;-65
2021/01/24 06:58:49;;;;;;;9.10;5.10;;;;;;;;;;10279244;28;19917;-64
2021/01/24 07:03:47;;;;;;;7.75;5.15;;;;;;;;;;10278660;28;20042;-64
2021/01/24 07:08:45;;;;;;;4.35;4.05;;;;;;;;;;10260154;28;20089;-63
2021/01/24 07:13:42;;;;;;;5.97;5.10;;;;;;;;;;10259404;28;20064;-64
2021/01/24 07:18:41;;;;;;;8.10;4.80;;;;;;;;;;10269523;28;21681;-64
2021/01/24 07:23:39;;;;;;;7.22;4.93;;;;;;;;;;10270415;28;20083;-64
2021/01/24 07:28:37;;;;;;;6.50;3.38;;;;;;;;;;10276608;28;20356;-62
2021/01/24 07:33:34;;;;;;;11.15;5.85;;;;;;;;;;10249783;28;20058;-65
2021/01/24 07:38:32;;;;;;;12.50;7.60;;;;;;;;;;10290869;28;20083;-65
2021/01/24 07:43:29;;;;;;;20.07;10.53;;;;;;;;;;10293359;28;20044;-64
2021/01/24 07:48:27;;;;;;;20.53;9.80;;;;;;;;;;10290723;28;20576;-65
2021/01/24 07:53:24;;;;;;;15.60;9.40;;;;;;;;;;10307529;28;20041;-64
2021/01/24 07:58:22;;;;;;;20.27;8.52;;;;;;;;;;10283548;28;20123;-64
2021/01/24 08:03:23;;;;;;;18.33;10.38;;;;;;;;;;10284118;28;20053;-65
2021/01/24 08:08:21;;;;;;;19.77;9.70;;;;;;;;;;10261037;28;20033;-65
2021/01/24 08:13:18;;;;;;;18.70;8.63;;;;;;;;;;10274442;28;20033;-64
2021/01/24 08:18:16;;;;;;;10.07;6.17;;;;;;;;;;10282809;28;20147;-64
2021/01/24 08:23:14;;;;;;;13.40;7.40;;;;;;;;;;10281140;28;20435;-64
2021/01/24 08:28:12;;;;;;;12.90;5.72;;;;;;;;;;10252856;28;20034;-65
2021/01/24 08:33:13;;;;;;;21.70;7.53;;;;;;;;;;10286797;28;20042;-64
2021/01/24 08:38:12;;;;;;;8.63;4.95;;;;;;;;;;10276877;28;20040;-64
2021/01/24 08:43:10;;;;;;;6.78;4.22;;;;;;;;;;10291965;28;20044;-64
2021/01/24 08:48:13;;;;;;;8.20;4.13;;;;;;;;;;10277427;28;20504;-64
2021/01/24 08:53:10;;;;;;;9.73;4.75;;;;;;;;;;10277547;28;20550;-64
2021/01/24 08:58:22;;;;;;;7.57;4.97;;;;;;;;;;10283103;28;20427;-64
2021/01/24 09:03:23;;;;;;;10.40;3.13;;;;;;;;;;10294525;28;20043;-64
2021/01/24 09:08:29;;;;;;;12.75;7.28;;;;;;;;;;10279139;28;20029;-64
2021/01/24 09:13:27;;;;;;;16.02;7.53;;;;;;;;;;10290411;28;20040;-64
2021/01/24 09:18:25;;;;;;;13.00;5.85;;;;;;;;;;10299410;28;20080;-64
2021/01/24 09:23:22;;;;;;;14.67;6.70;;;;;;;;;;10288216;28;20061;-64
2021/01/24 09:28:19;;;;;;;5.63;5.07;;;;;;;;;;10272358;28;20041;-63
2021/01/24 09:33:17;;;;;;;5.73;5.07;;;;;;;;;;10304039;28;20529;-63
2021/01/24 09:38:14;;;;;;;7.83;6.13;;;;;;;;;;10251784;28;20037;-64
2021/01/24 09:43:11;;;;;;;10.13;4.97;;;;;;;;;;10272952;28;20436;-64
2021/01/24 09:48:09;;;;;;;10.43;5.43;;;;;;;;;;10271345;28;20032;-64
2021/01/24 09:53:06;;;;;;;7.03;4.03;;;;;;;;;;10270696;28;20049;-64
2021/01/24 09:58:04;;;;;;;8.50;4.57;;;;;;;;;;10262179;28;20495;-65
2021/01/24 10:03:01;;;;;;;10.77;6.00;;;;;;;;;;10261251;28;20036;-64
2021/01/24 10:07:59;;;;;;;5.70;3.63;;;;;;;;;;10273329;28;20091;-64
2021/01/24 10:12:57;;;;;;;7.20;3.47;;;;;;;;;;10271076;28;20149;-64
2021/01/24 10:17:54;;;;;;;3.92;3.20;;;;;;;;;;10273740;28;20111;-64
2021/01/24 10:22:52;;;;;;;10.17;4.93;;;;;;;;;;10249900;28;20397;-63
2021/01/24 10:27:49;;;;;;;10.97;5.17;;;;;;;;;;10263802;28;20037;-64
2021/01/24 10:32:46;;;;;;;5.37;4.00;;;;;;;;;;10269012;28;20051;-64
2021/01/24 10:37:44;;;;;;;4.77;2.87;;;;;;;;;;10267147;28;20057;-64
2021/01/24 10:42:41;;;;;;;4.63;3.40;;;;;;;;;;10261830;28;21548;-64
2021/01/24 10:47:39;;;;;;;4.70;3.20;;;;;;;;;;10270979;28;20034;-63
2021/01/24 10:52:36;;;;;;;12.03;3.83;;;;;;;;;;10270165;28;20045;-64
2021/01/24 10:57:34;;;;;;;5.40;3.22;;;;;;;;;;10277184;28;20128;-64
2021/01/24 11:02:32;;;;;;;7.57;4.60;;;;;;;;;;10270183;28;20047;-64
2021/01/24 11:07:30;;;;;;;7.77;4.63;;;;;;;;;;10261721;28;20034;-64
2021/01/24 11:12:27;;;;;;;3.78;2.42;;;;;;;;;;10264849;28;20391;-64
2021/01/24 11:17:25;;;;;;;12.97;6.33;;;;;;;;;;10258372;28;20037;-64
2021/01/24 11:22:22;;;;;;;15.43;7.78;;;;;;;;;;10272064;28;20506;-64
2021/01/24 11:27:20;;;;;;;13.50;7.47;;;;;;;;;;10264742;28;20057;-64
2021/01/24 11:32:18;;;;;;;17.47;7.40;;;;;;;;;;10266006;28;20400;-64
2021/01/24 11:37:16;;;;;;;14.40;7.85;;;;;;;;;;10258353;28;20041;-64
2021/01/24 11:42:13;;;;;;;15.83;6.53;;;;;;;;;;10256518;28;20369;-64
2021/01/24 11:47:10;;;;;;;18.77;8.53;;;;;;;;;;10252561;28;20047;-64
2021/01/24 11:52:08;;;;;;;15.60;7.50;;;;;;;;;;10260897;28;20491;-64
2021/01/24 11:57:05;;;;;;;12.63;6.60;;;;;;;;;;10260557;28;22671;-64
2021/01/24 12:02:03;;;;;;;16.73;6.93;;;;;;;;;;10245347;28;20063;-64
2021/01/24 12:07:00;;;;;;;11.57;5.83;;;;;;;;;;10252198;28;20059;-63
2021/01/24 12:11:58;;;;;;;12.03;6.07;;;;;;;;;;10266158;28;20029;-64
2021/01/24 12:16:55;;;;;;;13.47;6.60;;;;;;;;;;10258497;28;20397;-64
2021/01/24 12:21:52;;;;;;;12.80;7.43;;;;;;;;;;10252234;28;20037;-64
2021/01/24 12:26:50;;;;;;;12.07;5.60;;;;;;;;;;10257468;28;20037;-63
2021/01/24 12:31:47;;;;;;;12.43;5.67;;;;;;;;;;10262438;28;20025;-63
2021/01/24 12:36:45;;;;;;;12.23;5.40;;;;;;;;;;10275681;28;20044;-64
2021/01/24 12:41:43;;;;;;;7.28;4.30;;;;;;;;;;10271748;28;20042;-63
2021/01/24 12:46:40;;;;;;;11.33;6.20;;;;;;;;;;10271822;28;20033;-64
2021/01/24 12:51:37;;;;;;;8.87;5.57;;;;;;;;;;10262363;28;20037;-65
2021/01/24 12:56:35;;;;;;;13.67;5.03;;;;;;;;;;10262139;28;20977;-64
2021/01/24 13:01:32;;;;;;;10.47;5.57;;;;;;;;;;10268346;28;20304;-64
2021/01/24 13:06:30;;;;;;;6.87;3.93;;;;;;;;;;10269395;28;20046;-64
2021/01/24 13:11:27;;;;;;;6.97;4.00;;;;;;;;;;10258167;28;20041;-63
2021/01/24 13:16:25;;;;;;;5.80;3.97;;;;;;;;;;10268999;28;20038;-64
2021/01/24 13:21:22;;;;;;;13.30;5.80;;;;;;;;;;10258329;28;20416;-64
2021/01/24 13:26:20;;;;;;;7.47;5.40;;;;;;;;;;10268065;28;20518;-64
2021/01/24 13:31:19;;;;;;;8.43;4.77;;;;;;;;;;10255869;28;20136;-64
2021/01/24 13:36:17;;;;;;;11.98;4.25;;;;;;;;;;10255158;28;20503;-64
2021/01/24 13:41:14;;;;;;;8.77;4.63;;;;;;;;;;10262325;28;20408;-65
2021/01/24 13:46:11;;;;;;;6.70;3.13;;;;;;;;;;10265969;28;20045;-64
2021/01/24 13:51:09;;;;;;;6.30;3.67;;;;;;;;;;10255636;28;20178;-65
2021/01/24 13:56:06;;;;;;;5.47;3.57;;;;;;;;;;10260877;28;20492;-65
2021/01/24 14:01:03;;;;;;;11.90;5.67;;;;;;;;;;10258425;28;20484;-64
2021/01/24 14:06:01;;;;;;;3.90;2.47;;;;;;;;;;10256811;28;20030;-64
2021/01/24 14:10:58;;;;;;;1.20;1.10;;;;;;;;;;10253267;28;20029;-65
2021/01/24 14:15:56;;;;;;;8.13;3.33;;;;;;;;;;10264960;28;20033;-63
2021/01/24 14:20:53;;;;;;;8.30;4.20;;;;;;;;;;10267353;28;20678;-64
2021/01/24 14:25:51;;;;;;;5.00;2.73;;;;;;;;;;10248888;28;20466;-62
2021/01/24 14:30:48;;;;;;;6.83;2.37;;;;;;;;;;10261199;28;20056;-64
2021/01/24 14:35:46;;;;;;;1.63;1.53;;;;;;;;;;10256890;28;20040;-64
2021/01/24 14:40:43;;;;;;;1.77;1.40;;;;;;;;;;10265369;28;20030;-65
2021/01/24 14:45:40;;;;;;;7.70;4.20;;;;;;;;;;10269802;28;20040;-63
2021/01/24 14:50:38;;;;;;;1.53;1.43;;;;;;;;;;10261118;28;20049;-63
2021/01/24 14:55:35;;;;;;;5.50;2.40;;;;;;;;;;10237351;28;20044;-65
2021/01/24 15:00:33;;;;;;;2.00;1.90;;;;;;;;;;10264874;28;20528;-63
2021/01/24 15:05:30;;;;;;;5.33;2.90;;;;;;;;;;10256611;28;20136;-65
2021/01/24 15:10:28;;;;;;;3.63;1.90;;;;;;;;;;10255359;28;20042;-64
2021/01/24 15:15:25;;;;;;;1.90;1.10;;;;;;;;;;10242387;28;20071;-64
2021/01/24 15:20:22;;;;;;;3.50;2.40;;;;;;;;;;10261048;28;20029;-63
2021/01/24 15:25:20;;;;;;;4.70;2.43;;;;;;;;;;10262075;28;20033;-64
2021/01/24 15:30:17;;;;;;;1.70;1.60;;;;;;;;;;10250710;28;20022;-64
2021/01/24 15:35:15;;;;;;;3.13;1.83;;;;;;;;;;10250323;28;21453;-64
2021/01/24 15:40:12;;;;;;;2.50;2.00;;;;;;;;;;10233371;28;20530;-64
2021/01/24 15:45:10;;;;;;;3.77;0.97;;;;;;;;;;10254875;28;20069;-64
2021/01/24 15:50:07;;;;;;;1.73;1.63;;;;;;;;;;10252299;28;20040;-62
2021/01/24 15:55:05;;;;;;;0.80;0.80;;;;;;;;;;10257495;28;20053;-64
2021/01/24 16:00:03;;;;;;;0.70;0.70;;;;;;;;;;10260289;28;20124;-65
2021/01/24 16:05:03;;;;;;;0.40;0.40;;;;;;;;;;10259831;28;20087;-64
2021/01/24 16:10:01;;;;;;;0.40;0.40;;;;;;;;;;10253172;28;20060;-64
2021/01/24 16:14:58;;;;;;;0.30;0.30;;;;;;;;;;10251707;28;20545;-64
2021/01/24 16:19:55;;;;;;;0.83;0.53;;;;;;;;;;10248797;28;20073;-64
2021/01/24 16:24:53;;;;;;;0.50;0.50;;;;;;;;;;10263855;28;20044;-64
2021/01/24 16:29:50;;;;;;;0.50;0.43;;;;;;;;;;10241270;28;20041;-63
2021/01/24 16:34:48;;;;;;;0.60;0.60;;;;;;;;;;10249746;28;20045;-65
2021/01/24 16:39:46;;;;;;;0.57;0.40;;;;;;;;;;10257264;28;20048;-65
2021/01/24 16:44:43;;;;;;;0.70;0.70;;;;;;;;;;10252040;28;20069;-64
2021/01/24 16:49:40;;;;;;;0.73;0.73;;;;;;;;;;10255505;28;20530;-65
2021/01/24 16:54:39;;;;;;;3.03;0.80;;;;;;;;;;10250995;28;20046;-65
2021/01/24 16:59:36;;;;;;;0.80;0.80;;;;;;;;;;10256250;28;20061;-66
2021/01/24 17:04:34;;;;;;;0.83;0.60;;;;;;;;;;10247978;28;20037;-65
2021/01/24 17:09:32;;;;;;;1.13;0.80;;;;;;;;;;10242983;28;20049;-64
2021/01/24 17:14:29;;;;;;;0.95;0.85;;;;;;;;;;10242148;28;20042;-64
2021/01/24 17:19:27;;;;;;;2.63;0.83;;;;;;;;;;10222528;28;665001;-64
2021/01/24 17:24:24;;;;;;;1.27;1.10;;;;;;;;;;10246432;28;20045;-66
2021/01/24 17:29:23;;;;;;;2.43;1.47;;;;;;;;;;10255343;28;20119;-63
2021/01/24 17:34:23;;;;;;;2.83;0.90;;;;;;;;;;10264809;28;20033;-64
2021/01/24 17:39:21;;;;;;;1.30;0.70;;;;;;;;;;10257782;28;20025;-63
2021/01/24 17:44:18;;;;;;;1.55;0.60;;;;;;;;;;10257488;28;20045;-65
2021/01/24 17:49:16;;;;;;;1.50;0.90;;;;;;;;;;10242674;28;20152;-64
2021/01/24 17:54:16;;;;;;;1.13;0.70;;;;;;;;;;10241754;28;20030;-63
2021/01/24 17:59:14;;;;;;;1.23;0.80;;;;;;;;;;10255908;28;20033;-63
2021/01/24 18:04:11;;;;;;;2.43;0.93;;;;;;;;;;10265649;28;20041;-63
2021/01/24 18:09:08;;;;;;;2.30;1.60;;;;;;;;;;10252301;28;20041;-64
2021/01/24 18:14:06;;;;;;;8.33;1.07;;;;;;;;;;10255689;28;20045;-66
2021/01/24 18:19:03;;;;;;;2.07;1.17;;;;;;;;;;10238819;28;20053;-64
2021/01/24 18:24:01;;;;;;;3.63;1.13;;;;;;;;;;10256341;28;20156;-64
2021/01/24 18:28:58;;;;;;;0.50;0.50;;;;;;;;;;10257524;28;20033;-63
2021/01/24 18:33:55;;;;;;;2.60;0.93;;;;;;;;;;10262114;28;20052;-66
2021/01/24 18:38:53;;;;;;;1.60;0.93;;;;;;;;;;10238527;28;20081;-65
2021/01/24 18:43:50;;;;;;;1.20;0.80;;;;;;;;;;10261519;28;20037;-64
2021/01/24 18:48:48;;;;;;;0.93;0.60;;;;;;;;;;10268528;28;20391;-65
2021/01/24 18:53:45;;;;;;;3.93;0.87;;;;;;;;;;10255547;28;20152;-66
2021/01/24 18:58:42;;;;;;;0.60;0.60;;;;;;;;;;10263050;28;20049;-66
2021/01/24 19:03:40;;;;;;;2.10;1.17;;;;;;;;;;10256345;28;20107;-65
2021/01/24 19:08:37;;;;;;;4.97;2.53;;;;;;;;;;10259413;28;20034;-65
2021/01/24 19:13:35;;;;;;;9.17;3.53;;;;;;;;;;10248197;28;20067;-64
2021/01/24 19:18:32;;;;;;;3.97;2.77;;;;;;;;;;10239672;28;20045;-66
2021/01/24 19:23:30;;;;;;;3.80;2.40;;;;;;;;;;10267557;28;20037;-64
2021/01/24 19:28:27;;;;;;;2.87;1.60;;;;;;;;;;10282766;28;20060;-64
2021/01/24 19:33:24;;;;;;;3.83;2.60;;;;;;;;;;10282988;28;20061;-66
2021/01/24 19:38:22;;;;;;;3.80;1.50;;;;;;;;;;10256941;28;20044;-65
2021/01/24 19:43:20;;;;;;;1.67;1.43;;;;;;;;;;10286497;28;21479;-65
2021/01/24 19:48:17;;;;;;;3.15;1.52;;;;;;;;;;10290622;28;20039;-65
2021/01/24 19:53:15;;;;;;;1.03;1.00;;;;;;;;;;10290803;28;20049;-64
2021/01/24 19:58:12;;;;;;;4.20;1.30;;;;;;;;;;10291185;28;20040;-64
2021/01/24 20:03:09;;;;;;;0.80;0.80;;;;;;;;;;10293598;28;20037;-64
2021/01/24 20:08:07;;;;;;;0.80;0.80;;;;;;;;;;10273834;28;20036;-65
2021/01/24 20:13:07;;;;;;;3.03;1.20;;;;;;;;;;10261186;28;20049;-64
2021/01/24 20:18:08;;;;;;;2.20;0.68;;;;;;;;;;10237105;28;20071;-64
2021/01/24 20:23:11;;;;;;;2.58;1.13;;;;;;;;;;10258246;28;20038;-64
2021/01/24 20:28:08;;;;;;;2.25;1.05;;;;;;;;;;10249838;28;21204;-64
2021/01/24 20:33:06;;;;;;;0.87;0.80;;;;;;;;;;10258941;28;20045;-64
2021/01/24 20:38:03;;;;;;;0.50;0.50;;;;;;;;;;10253380;28;20046;-64
2021/01/24 20:43:00;;;;;;;0.80;0.80;;;;;;;;;;10255369;28;20504;-63
2021/01/24 20:47:58;;;;;;;4.47;1.80;;;;;;;;;;10251547;28;20045;-64
2021/01/24 20:52:55;;;;;;;23.13;9.43;;;;;;;;;;10254579;28;20053;-67
2021/01/24 20:57:53;;;;;;;23.20;9.00;;;;;;;;;;10256871;28;20558;-64
2021/01/24 21:02:51;;;;;;;22.30;8.95;;;;;;;;;;10259819;28;20041;-64
2021/01/24 21:07:49;;;;;;;22.52;7.65;;;;;;;;;;10255185;28;20037;-64
2021/01/24 21:12:46;;;;;;;40.57;14.37;;;;;;;;;;10259762;28;20049;-63
2021/01/24 21:17:44;;;;;;;62.63;19.97;;;;;;;;;;10243883;28;20516;-63
2021/01/24 21:22:41;;;;;;;126.35;33.28;;;;;;;;;;10253303;28;20053;-65
2021/01/24 21:27:39;;;;;;;106.97;35.40;;;;;;;;;;10256530;28;20063;-65
2021/01/24 21:32:37;;;;;;;90.50;30.90;;;;;;;;;;10253189;28;21433;-65
2021/01/24 21:37:35;;;;;;;40.53;16.58;;;;;;;;;;10254495;28;20774;-63
2021/01/24 21:42:32;;;;;;;44.13;14.20;;;;;;;;;;10262023;28;20084;-65
2021/01/24 21:47:29;;;;;;;55.63;19.33;;;;;;;;;;10248519;28;20112;-64
2021/01/24 21:52:27;;;;;;;51.70;17.87;;;;;;;;;;10261139;28;20048;-63
2021/01/24 21:57:24;;;;;;;45.43;16.33;;;;;;;;;;10259052;28;20606;-65
2021/01/24 22:02:22;;;;;;;39.67;15.23;;;;;;;;;;10258803;28;20491;-64
2021/01/24 22:07:19;;;;;;;39.80;12.93;;;;;;;;;;10249080;28;20045;-65
2021/01/24 22:12:16;;;;;;;17.67;7.77;;;;;;;;;;10265214;28;20041;-64
2021/01/24 22:17:14;;;;;;;25.63;9.13;;;;;;;;;;10253122;28;20061;-64
2021/01/24 22:22:11;;;;;;;9.00;4.87;;;;;;;;;;10262799;28;20045;-65
2021/01/24 22:27:09;;;;;;;13.70;5.00;;;;;;;;;;10254692;28;20052;-64
2021/01/24 22:32:06;;;;;;;16.50;6.17;;;;;;;;;;10253380;28;20029;-65
2021/01/24 22:37:04;;;;;;;8.50;3.13;;;;;;;;;;10245515;28;20048;-64
2021/01/24 22:42:01;;;;;;;5.83;3.17;;;;;;;;;;10269761;28;20064;-63
2021/01/24 22:46:58;;;;;;;5.70;3.00;;;;;;;;;;10228314;28;20484;-63
2021/01/24 22:51:56;;;;;;;3.87;2.30;;;;;;;;;;10249057;28;20463;-65
2021/01/24 22:56:53;;;;;;;5.10;3.03;;;;;;;;;;10270951;28;20017;-64
2021/01/24 23:01:51;;;;;;;5.27;3.10;;;;;;;;;;10257168;28;20025;-65
2021/01/24 23:06:48;;;;;;;3.57;2.03;;;;;;;;;;10242603;28;20048;-64
2021/01/24 23:11:46;;;;;;;4.97;2.90;;;;;;;;;;10259067;28;20880;-65
2021/01/24 23:16:43;;;;;;;8.30;2.90;;;;;;;;;;10258673;28;20041;-66
2021/01/24 23:21:41;;;;;;;2.43;1.37;;;;;;;;;;10258959;28;20492;-65
2021/01/24 23:26:38;;;;;;;4.83;2.33;;;;;;;;;;10245990;28;20559;-65
2021/01/24 23:31:36;;;;;;;3.37;2.03;;;;;;;;;;10264627;28;20517;-67
2021/01/24 23:36:33;;;;;;;0.83;0.83;;;;;;;;;;10249033;28;20049;-65
2021/01/24 23:41:30;;;;;;;6.27;1.63;;;;;;;;;;10231361;28;20045;-63
2021/01/24 23:46:28;;;;;;;6.60;1.90;;;;;;;;;;10257598;28;20427;-65
2021/01/24 23:51:25;;;;;;;5.23;1.70;;;;;;;;;;10258542;28;20037;-65
2021/01/24 23:56:23;;;;;;;1.40;1.33;;;;;;;;;;10264604;28;20098;-63
